VILK/LKO METAR and TAF weather

Enter ICAO airport designator
Station Type Date Time Source
VILK METAR 2019/04/25 07:30 UTC NOAA

VILK 250730Z VRB02KT 4000 HZ NSC 39/19 Q1007 NOSIG


Station Type Date Time Source
VILK Decoded METAR 2019/04/25 07:30 UTC NOAA

Lucknow / Amausi, India (VILK) 26-45N 080-53E 128M
Apr 25, 2019 - 03:30 AM EDT / 2019.04.25 0730 UTC
Wind: Variable at 2 MPH (2 KT):0
Visibility: 2 mile(s):0
Weather: haze
Temperature: 102 F (39 C)
Heat index: 106.5 F (41.4 C):1
Dew Point: 66 F (19 C)
Relative Humidity: 31%
Pressure (altimeter): 29.74 in. Hg (1007 hPa)
ob: VILK 250730Z VRB02KT 4000 HZ NSC 39/19 Q1007 NOSIG
cycle: 7

Station Type Date Time Source
VILK TAF 2019/04/25 06:30 UTC NOAA

TAF VILK 250500Z 2506/2612 14004KT 4000 HZ NSC
BECMG 2508/2510 26004KT 5000 HZ
BECMG 2515/2517 VRB02KTKT 3000 HZ
BECMG 2600/2602 2000 HZ
BECMG 2608/2610 32008KT 5000 HZ

Example: see airport list